South Chaplin, Connecticut
Current Conditions -  °F | °C
As of 12:52 PM on Friday 31 Oct 2014 (Local Time) from KIJD Reporting Station
Broken Clouds Broken Clouds  
Wind Chill: 55°   Ceiling: 4100
Heat Index: 55°   Visibility: 10mi
Dew Point: 37°   Wind: 6mph
Humidity: 51%   Direction: 60°ENE
Pressure: 29.97"   Gusts: NA
Location:  41.7601°N, 72.123°W
Report Text: KIJD 311652Z AUTO 06005KT 10SM BKN041 BKN050 13/03 A2997 RMK AO2 SLP149 T01280028
Loading
Personal Weather Stations






























Interactive Weather Map New forecast layout! Learn more

10-Day Weather Forecast

Advertisements
Track Severe Weather on mobile